Time;durP1;ratioP1;P1;durP2;ratioP2;P2;SDS_P1;SDS_P2;PMS_P1;PMS_P2;Temp;Humidity;BMP_temperature;BMP_pressure;BME280_temperature;BME280_humidity;BME280_pressure;Samples;Min_cycle;Max_cycle;Signal;HPM_P1;HPM_P2
2022/05/10 00:00:19;;;;;;;8.98;6.50;;;14.30;66.70;;;10.47;85.92;96083.34;5073831;28;20391;-53
2022/05/10 00:02:51;;;;;;;9.45;6.43;;;14.30;66.80;;;10.38;86.64;96082.97;5071349;28;20023;-55
2022/05/10 00:05:26;;;;;;;10.45;6.88;;;14.20;67.00;;;10.32;86.27;96082.13;5054285;28;20025;-57
2022/05/10 00:07:53;;;;;;;8.07;6.40;;;14.20;67.30;;;10.29;86.98;96087.13;5071896;28;20180;-53
2022/05/10 00:10:19;;;;;;;8.98;6.63;;;14.10;67.30;;;10.27;86.31;96089.22;5072244;28;20487;-54
2022/05/10 00:12:48;;;;;;;8.73;6.45;;;14.10;67.30;;;10.24;86.21;96087.03;5054453;28;20397;-54
2022/05/10 00:15:20;;;;;;;7.38;6.20;;;14.00;67.30;;;10.11;86.10;96073.06;5072122;28;20024;-54
2022/05/10 00:17:55;;;;;;;8.43;6.60;;;14.00;67.30;;;10.04;86.50;96080.44;5074373;28;20044;-51
2022/05/10 00:20:33;;;;;;;7.75;6.28;;;14.00;67.40;;;10.03;86.60;96081.50;5054367;28;20035;-55
2022/05/10 00:22:59;;;;;;;9.65;6.43;;;13.90;67.50;;;9.96;86.44;96081.69;5055567;28;20024;-54
2022/05/10 00:25:29;;;;;;;8.30;6.82;;;13.80;67.40;;;9.94;86.90;96089.09;5092328;28;20376;-52
2022/05/10 00:27:58;;;;;;;7.82;6.47;;;13.80;67.50;;;9.88;87.31;96082.13;5060972;28;20395;-54
2022/05/10 00:30:24;;;;;;;9.18;6.32;;;13.80;68.00;;;9.90;87.92;96089.84;5065990;28;20024;-55
2022/05/10 00:32:51;;;;;;;9.05;5.95;;;13.70;68.00;;;9.93;87.81;96089.34;5060122;28;20115;-51
2022/05/10 00:35:24;;;;;;;9.48;6.07;;;13.70;68.20;;;9.93;87.75;96094.66;5069513;28;20074;-54
2022/05/10 00:37:54;;;;;;;7.97;5.90;;;13.70;68.60;;;9.92;87.48;96098.38;5087936;28;20480;-52
2022/05/10 00:40:25;;;;;;;8.93;5.75;;;13.70;68.50;;;9.86;87.05;96094.06;5074858;28;20028;-54
2022/05/10 00:43:22;;;;;;;9.10;6.03;;;13.70;68.40;;;9.75;87.31;96095.78;5074657;28;20048;-56
2022/05/10 00:46:09;;;;;;;10.43;6.68;;;13.70;68.50;;;9.75;87.79;96095.78;5058021;28;20643;-51
2022/05/10 00:49:10;;;;;;;8.45;6.35;;;13.60;68.40;;;9.76;87.55;96096.59;5060905;28;20470;-51
2022/05/10 00:52:26;;;;;;;9.60;6.38;;;13.60;68.50;;;9.65;87.69;96090.31;5013442;28;20123;-53
2022/05/10 00:55:28;;;;;;;8.07;6.30;;;13.50;68.40;;;9.63;87.60;96097.75;5001924;28;20084;-57
2022/05/10 00:58:19;;;;;;;9.32;6.15;;;13.50;68.60;;;9.61;87.44;96103.31;5067119;28;20039;-51
2022/05/10 01:00:45;;;;;;;7.30;6.05;;;13.40;68.60;;;9.55;87.64;96092.84;5077712;28;20048;-50
2022/05/10 01:03:28;;;;;;;8.27;6.28;;;13.40;68.30;;;9.51;87.54;96103.16;5077794;28;20432;-51
2022/05/10 01:06:17;;;;;;;7.72;5.90;;;13.40;68.70;;;9.46;87.91;96101.25;5078187;28;20024;-56
2022/05/10 01:09:02;;;;;;;8.05;5.47;;;13.40;68.70;;;9.44;87.94;96100.69;5075316;28;20068;-50
2022/05/10 01:11:49;;;;;;;7.43;5.85;;;13.30;68.70;;;9.42;87.72;96096.66;5074316;28;20044;-53
2022/05/10 01:14:31;;;;;;;7.78;6.05;;;13.30;68.80;;;9.35;88.63;96096.03;5068659;28;20102;-51
2022/05/10 01:17:00;;;;;;;8.50;6.10;;;13.20;68.90;;;9.32;88.44;96097.31;5077644;28;20442;-50
2022/05/10 01:19:35;;;;;;;9.00;5.53;;;13.20;68.90;;;9.27;88.05;96086.59;5040594;28;20482;-53
2022/05/10 01:22:56;;;;;;;10.10;6.70;;;13.20;68.90;;;9.25;88.40;96099.34;5075328;28;20032;-55
2022/05/10 01:26:02;;;;;;;10.57;6.45;;;13.10;69.10;;;9.21;88.20;96091.06;5079823;28;20395;-54
2022/05/10 01:28:45;;;;;;;9.48;6.68;;;13.10;68.90;;;9.15;88.85;96100.00;5077201;28;20075;-55
2022/05/10 01:31:38;;;;;;;7.05;6.03;;;13.10;69.20;;;9.08;89.18;96083.41;5064315;28;20024;-50
2022/05/10 01:34:11;;;;;;;11.18;6.50;;;13.00;69.40;;;9.16;89.45;96092.84;5066025;28;20031;-53
2022/05/10 01:36:59;;;;;;;7.90;6.43;;;13.00;69.50;;;9.16;88.91;96090.19;5064622;28;20104;-56
2022/05/10 01:39:49;;;;;;;6.85;6.15;;;13.00;69.70;;;9.14;89.06;96086.94;5074269;28;20032;-54
2022/05/10 01:42:51;;;;;;;9.23;6.30;;;13.00;69.70;;;9.13;88.92;96093.31;5073155;28;20051;-51
2022/05/10 01:45:31;;;;;;;7.35;6.05;;;13.00;69.90;;;9.11;88.54;96096.19;5065666;28;20029;-54
2022/05/10 01:48:02;;;;;;;8.38;6.30;;;12.90;69.60;;;9.07;88.50;96095.09;5095028;28;20386;-56
2022/05/10 01:50:50;;;;;;;9.30;6.05;;;12.90;69.60;;;9.00;88.36;96084.63;5063510;28;20028;-51
2022/05/10 01:53:36;;;;;;;9.43;6.43;;;12.90;69.70;;;8.98;88.95;96089.34;5060869;28;20103;-54
2022/05/10 01:56:23;;;;;;;7.22;5.75;;;12.90;69.80;;;8.92;88.93;96084.22;5057205;28;20111;-51
2022/05/10 01:58:49;;;;;;;8.40;6.60;;;12.90;69.90;;;8.88;89.07;96073.25;5059664;28;20036;-54
2022/05/10 02:01:18;;;;;;;9.35;6.47;;;12.80;69.70;;;8.89;89.26;96080.19;5067072;28;20032;-50
2022/05/10 02:03:55;;;;;;;8.32;6.05;;;12.80;70.00;;;8.89;88.87;96077.53;5090951;28;20062;-52
2022/05/10 02:06:57;;;;;;;7.93;5.55;;;12.80;70.10;;;8.85;88.57;96081.72;5065057;28;20077;-52
2022/05/10 02:09:44;;;;;;;8.30;5.43;;;12.80;70.10;;;8.82;88.63;96086.72;5043035;28;20083;-50
2022/05/10 02:12:16;;;;;;;8.20;5.95;;;12.70;69.80;;;8.75;88.70;96081.56;5035074;28;20029;-53
2022/05/10 02:15:12;;;;;;;8.07;5.87;;;12.70;69.80;;;8.67;88.82;96074.78;5034120;28;20079;-53
2022/05/10 02:18:38;;;;;;;8.25;6.40;;;12.70;70.00;;;8.70;89.54;96073.50;5046712;28;20342;-51
2022/05/10 02:21:30;;;;;;;7.68;5.70;;;12.60;70.00;;;8.68;89.58;96070.25;5052546;28;20052;-52
2022/05/10 02:24:29;;;;;;;6.85;5.32;;;12.60;70.10;;;8.70;89.32;96068.97;5038238;28;20021;-51
2022/05/10 02:27:01;;;;;;;8.80;5.90;;;12.60;70.20;;;8.64;89.28;96069.13;5037532;28;20123;-54
2022/05/10 02:29:41;;;;;;;7.10;5.55;;;12.60;70.10;;;8.63;89.21;96071.00;5050769;28;20021;-52
2022/05/10 02:35:25;;;;;;;8.98;6.00;;;12.50;70.30;;;8.61;90.02;96065.09;5044422;28;20063;-52
2022/05/10 02:37:54;;;;;;;11.55;6.43;;;12.50;70.20;;;8.61;89.99;96062.44;5053470;28;20028;-50
2022/05/10 02:40:23;;;;;;;11.52;5.95;;;12.50;70.40;;;8.63;89.98;96063.03;5053587;28;20048;-50
2022/05/10 02:42:49;;;;;;;7.32;6.03;;;12.50;70.50;;;8.60;89.59;96063.50;5053575;28;20021;-51
2022/05/10 02:45:27;;;;;;;7.07;5.85;;;12.50;71.30;;;8.54;89.51;96059.94;5040391;28;20036;-55
2022/05/10 02:47:53;;;;;;;8.32;6.10;;;12.50;70.50;;;8.54;89.77;96059.94;5039194;28;20472;-53
2022/05/10 02:50:30;;;;;;;8.02;6.53;;;12.40;70.40;;;8.53;90.15;96061.00;5034981;28;20027;-53
2022/05/10 02:53:00;;;;;;;9.35;6.47;;;12.50;70.80;;;8.53;90.06;96063.66;5021394;28;20025;-53
2022/05/10 02:55:58;;;;;;;9.80;7.10;;;12.40;70.60;;;8.54;90.02;96057.31;5048227;28;20025;-53
2022/05/10 02:58:44;;;;;;;8.00;6.28;;;12.40;71.70;;;8.46;90.15;96051.56;5051766;28;20028;-51
2022/05/10 03:01:46;;;;;;;9.95;6.50;;;12.40;70.90;;;8.49;90.14;96059.88;5042378;28;20592;-52
2022/05/10 03:04:12;;;;;;;9.40;6.35;;;12.40;70.90;;;8.46;89.75;96052.41;5033271;28;20535;-52
2022/05/10 03:06:42;;;;;;;11.88;6.70;;;12.40;70.70;;;8.49;90.18;96053.75;5034202;28;20057;-53
2022/05/10 03:09:17;;;;;;;11.45;7.43;;;12.40;70.70;;;8.52;90.50;96063.88;5071940;28;20040;-52
2022/05/10 03:11:45;;;;;;;9.75;6.70;;;12.40;71.00;;;8.43;91.05;96039.59;5071867;28;20028;-51
2022/05/10 03:14:14;;;;;;;9.05;7.00;;;12.30;70.80;;;8.52;91.11;96059.41;5072958;28;20028;-52
2022/05/10 03:16:40;;;;;;;9.40;6.43;;;12.30;71.00;;;8.54;90.74;96059.16;5068792;28;20500;-55
2022/05/10 03:19:06;;;;;;;11.52;7.57;;;12.30;70.90;;;8.46;90.63;96055.06;5054785;28;20025;-55
2022/05/10 03:21:37;;;;;;;11.30;7.32;;;12.30;70.90;;;8.43;90.66;96058.19;5072726;28;20029;-55
2022/05/10 03:24:04;;;;;;;11.82;8.10;;;12.30;71.10;;;8.44;91.07;96059.78;5071672;28;20040;-51
2022/05/10 03:26:45;;;;;;;15.43;8.48;;;12.30;71.20;;;8.47;91.37;96064.63;5071423;28;20027;-52
2022/05/10 03:29:15;;;;;;;15.65;8.77;;;12.30;71.60;;;8.47;91.36;96072.59;5071546;28;20395;-55
2022/05/10 03:31:41;;;;;;;17.02;8.82;;;12.30;71.60;;;8.46;91.28;96072.81;5072371;28;20092;-50
2022/05/10 03:37:01;;;;;;;11.98;8.18;;;12.30;71.60;;;8.41;90.92;96065.56;5082226;28;20043;-55
2022/05/10 03:39:32;;;;;;;14.27;8.35;;;12.30;71.50;;;8.40;91.00;96066.63;5092707;28;20024;-55
2022/05/10 03:42:03;;;;;;;12.10;8.80;;;12.30;71.50;;;8.38;91.17;96062.56;5092746;28;20039;-55
2022/05/10 03:44:34;;;;;;;12.73;7.90;;;12.30;71.80;;;8.35;90.94;96058.53;5056640;28;20021;-54
2022/05/10 03:47:05;;;;;;;12.68;8.60;;;12.30;71.90;;;8.32;91.19;96059.00;5084591;28;20035;-53
2022/05/10 03:49:34;;;;;;;12.32;8.40;;;12.30;71.90;;;8.24;90.69;96059.38;5058001;28;20041;-51
2022/05/10 03:52:06;;;;;;;14.00;9.13;;;12.20;71.70;;;8.23;90.75;96063.09;5060998;28;20039;-54
2022/05/10 03:54:31;;;;;;;12.67;8.90;;;12.20;71.70;;;8.24;90.49;96062.03;5061836;28;20063;-51
2022/05/10 03:56:59;;;;;;;17.80;10.07;;;12.20;71.50;;;8.19;90.70;96060.09;5077970;28;20036;-53
2022/05/10 03:59:28;;;;;;;14.23;9.45;;;12.20;71.60;;;8.16;91.24;96055.28;5054273;28;20399;-54
2022/05/10 04:01:54;;;;;;;14.75;10.43;;;12.10;71.80;;;8.22;91.52;96062.28;5071132;28;20388;-55
2022/05/10 04:04:23;;;;;;;18.63;10.90;;;12.10;71.80;;;8.24;91.50;96062.88;5072190;28;20035;-54
2022/05/10 04:06:48;;;;;;;15.68;9.18;;;12.10;72.00;;;8.24;90.81;96059.38;5070124;28;20024;-55
2022/05/10 04:09:16;;;;;;;15.85;10.07;;;12.10;71.90;;;8.22;91.15;96061.47;5072110;28;20111;-52
2022/05/10 04:11:45;;;;;;;14.63;9.60;;;12.10;71.90;;;8.22;90.97;96062.28;5071097;28;20365;-54
2022/05/10 04:14:11;;;;;;;17.88;10.43;;;12.10;71.80;;;8.17;91.17;96062.19;5070986;28;20024;-53
2022/05/10 04:16:37;;;;;;;17.73;10.63;;;12.10;71.80;;;8.21;91.36;96066.00;5087554;28;20035;-54
2022/05/10 04:19:15;;;;;;;15.32;10.35;;;12.20;71.90;;;8.20;91.30;96053.75;5092252;28;20081;-52
2022/05/10 04:21:40;;;;;;;13.52;9.35;;;12.20;72.10;;;8.23;91.08;96055.94;5056315;28;20021;-51
2022/05/10 04:24:07;;;;;;;15.10;10.23;;;12.20;71.90;;;8.25;91.02;96063.66;5083229;28;20031;-51
2022/05/10 04:26:37;;;;;;;14.50;9.68;;;12.20;72.00;;;8.24;91.39;96056.72;5091898;28;20020;-52
2022/05/10 04:29:09;;;;;;;18.95;9.52;;;12.20;72.00;;;8.24;91.07;96067.34;5057617;28;20402;-51
2022/05/10 04:31:35;;;;;;;14.20;9.60;;;12.20;72.00;;;8.22;91.36;96059.63;5092199;28;20024;-53
2022/05/10 04:34:03;;;;;;;12.80;9.70;;;12.30;72.10;;;8.26;91.40;96065.25;5061958;28;20420;-52
2022/05/10 04:36:41;;;;;;;15.30;9.65;;;12.30;72.10;;;8.34;91.58;96065.69;5091109;28;20042;-52
2022/05/10 04:39:13;;;;;;;12.60;9.50;;;12.40;72.40;;;8.48;91.42;96060.09;5073760;28;20386;-53
2022/05/10 04:41:49;;;;;;;17.02;9.93;;;12.40;72.20;;;8.82;91.95;96073.44;5065681;28;20119;-53
2022/05/10 04:44:21;;;;;;;13.85;10.13;;;12.50;72.20;;;9.18;92.00;96077.44;5057755;28;20032;-52
2022/05/10 04:46:50;;;;;;;24.77;15.55;;;12.70;72.40;;;9.45;90.52;96070.38;5062724;28;20119;-50
2022/05/10 04:49:15;;;;;;;11.57;8.45;;;12.90;72.30;;;9.69;89.64;96070.19;5090066;28;20402;-55
2022/05/10 04:51:41;;;;;;;10.85;6.50;;;13.10;72.30;;;9.87;89.31;96082.34;5091926;28;20032;-50
2022/05/10 04:54:13;;;;;;;10.60;6.43;;;13.30;72.10;;;10.01;87.97;96070.28;5073845;28;20487;-50
2022/05/10 04:56:39;;;;;;;7.63;5.45;;;13.50;71.80;;;10.23;86.44;96080.13;5091831;28;20394;-51
2022/05/10 04:59:04;;;;;;;13.18;9.65;;;13.70;71.40;;;10.46;85.47;96073.72;5091752;28;20020;-54
2022/05/10 05:01:31;;;;;;;10.07;6.30;;;13.90;71.20;;;10.65;85.53;96075.78;5091901;28;20038;-50
2022/05/10 05:03:59;;;;;;;11.43;7.93;;;14.10;70.80;;;10.84;85.69;96084.22;5073309;28;20107;-50
2022/05/10 05:06:26;;;;;;;10.38;6.78;;;14.30;70.50;;;11.08;83.87;96073.19;5061837;28;20021;-52
2022/05/10 05:08:52;;;;;;;8.20;5.85;;;14.50;70.10;;;11.35;83.64;96075.78;5053601;28;20044;-53
2022/05/10 05:11:18;;;;;;;6.32;4.72;;;14.70;70.60;;;11.67;82.47;96086.38;5053676;28;20090;-50
2022/05/10 05:13:44;;;;;;;5.18;4.68;;;15.00;69.50;;;11.99;82.27;96088.16;5053984;28;20480;-52
2022/05/10 05:16:10;;;;;;;8.43;4.40;;;15.20;69.10;;;12.28;80.17;96085.84;5048389;28;20451;-51
2022/05/10 05:18:36;;;;;;;7.82;4.60;;;15.50;68.80;;;12.56;78.28;96089.13;5086023;28;20115;-51
2022/05/10 05:21:02;;;;;;;5.65;4.10;;;15.80;68.30;;;12.88;79.02;96086.22;5068441;28;20099;-51
2022/05/10 05:23:28;;;;;;;4.93;3.95;;;16.10;68.10;;;13.16;76.15;96084.88;5016376;28;20131;-53
2022/05/10 05:25:55;;;;;;;4.25;3.85;;;16.40;67.70;;;13.43;75.59;96090.78;5085862;28;20514;-56
2022/05/10 05:28:22;;;;;;;5.20;4.20;;;16.70;67.10;;;13.71;74.31;96088.59;5081564;28;20078;-52
2022/05/10 05:30:48;;;;;;;5.70;3.08;;;17.00;66.50;;;13.91;70.45;96078.88;5070066;28;20561;-52
2022/05/10 05:33:14;;;;;;;5.28;3.10;;;17.30;65.60;;;14.15;70.18;96073.72;5077008;28;20060;-55
2022/05/10 05:35:41;;;;;;;4.55;3.38;;;17.60;65.00;;;14.57;69.55;96090.16;5076981;28;20028;-55
2022/05/10 05:38:08;;;;;;;3.33;2.95;;;17.90;64.30;;;14.86;68.57;96088.63;5057135;28;20028;-54
2022/05/10 05:40:36;;;;;;;4.30;3.13;;;18.20;63.70;;;15.16;66.64;96084.91;5069851;28;20028;-53
2022/05/10 05:43:21;;;;;;;3.03;2.72;;;18.50;62.80;;;15.53;64.83;96095.03;5056977;28;20058;-53
2022/05/10 05:45:50;;;;;;;3.42;2.63;;;18.80;62.00;;;15.76;63.76;96093.47;5059208;28;20029;-52
2022/05/10 05:48:20;;;;;;;3.17;2.60;;;19.20;61.00;;;15.84;62.13;96095.56;5060206;28;20081;-52
2022/05/10 05:50:46;;;;;;;6.07;2.47;;;19.50;59.80;;;16.03;62.29;96084.88;5063356;28;20024;-52
2022/05/10 05:53:18;;;;;;;2.90;2.60;;;19.80;59.30;;;16.35;60.91;96100.31;5060022;28;20063;-56
2022/05/10 05:55:47;;;;;;;2.80;2.40;;;20.10;58.60;;;16.52;60.49;96102.53;5042039;28;20041;-53
2022/05/10 05:58:13;;;;;;;3.17;2.80;;;20.30;58.70;;;16.69;59.36;96093.97;5056878;28;20111;-55
2022/05/10 06:00:39;;;;;;;2.60;2.40;;;20.60;57.50;;;16.97;58.71;96100.31;5025411;28;20067;-55
2022/05/10 06:03:05;;;;;;;3.15;2.63;;;20.90;56.80;;;17.07;56.92;96093.97;5056526;28;20049;-53
2022/05/10 06:05:35;;;;;;;4.65;2.67;;;21.10;56.10;;;17.24;58.37;96096.94;5056265;28;20130;-56
2022/05/10 06:08:03;;;;;;;3.97;2.20;;;21.30;55.30;;;17.38;56.27;96102.34;5052694;28;20392;-54
2022/05/10 06:10:32;;;;;;;3.63;2.42;;;21.60;54.90;;;17.43;56.53;96102.28;5053080;28;20025;-52
2022/05/10 06:13:01;;;;;;;4.22;2.30;;;21.80;54.20;;;17.69;55.72;96099.91;5066134;28;20063;-52
2022/05/10 06:15:37;;;;;;;4.78;3.45;;;22.10;53.50;;;17.89;56.23;96093.38;5060586;28;20066;-52
2022/05/10 06:18:09;;;;;;;3.83;2.40;;;22.30;52.80;;;18.02;54.00;96095.31;5052765;28;20017;-52
2022/05/10 06:20:47;;;;;;;4.05;2.35;;;22.50;51.90;;;18.00;54.26;96105.56;5052018;28;20025;-54
2022/05/10 06:23:16;;;;;;;4.88;2.78;;;22.70;51.30;;;18.15;54.98;96103.69;5053339;28;20029;-51
2022/05/10 06:25:44;;;;;;;3.72;2.97;;;22.90;51.10;;;18.39;53.82;96093.47;5036219;28;20032;-54
2022/05/10 06:28:13;;;;;;;4.30;2.47;;;23.20;50.70;;;18.57;52.64;96107.94;5052430;28;20500;-54
2022/05/10 06:30:39;;;;;;;4.18;2.70;;;23.30;50.20;;;18.58;52.56;96109.50;5035927;28;20079;-52
2022/05/10 06:33:15;;;;;;;2.85;2.40;;;23.50;49.40;;;18.60;52.77;96106.53;5070374;28;20024;-56
2022/05/10 06:35:41;;;;;;;4.05;2.92;;;23.70;48.60;;;18.70;52.60;96120.59;5061378;28;20024;-55
2022/05/10 06:38:16;;;;;;;5.65;2.67;;;23.80;48.50;;;18.89;52.27;96104.28;5052355;28;20086;-55
2022/05/10 06:40:43;;;;;;;2.83;2.47;;;24.00;48.20;;;18.94;52.32;96112.28;5052561;28;20388;-54
2022/05/10 06:43:10;;;;;;;3.95;2.80;;;24.20;47.70;;;19.02;51.74;96107.25;5042642;28;20479;-52
2022/05/10 06:45:41;;;;;;;3.25;2.55;;;24.30;46.90;;;19.13;51.48;96109.41;5059791;28;20099;-53
2022/05/10 06:48:07;;;;;;;3.33;2.70;;;24.50;46.50;;;19.24;51.60;96112.66;5053454;28;20025;-54
2022/05/10 06:50:33;;;;;;;6.15;2.75;;;24.60;46.40;;;19.47;50.69;96110.75;5052235;28;20051;-55
2022/05/10 06:52:59;;;;;;;6.22;2.63;;;24.70;46.00;;;19.62;50.27;96107.66;5052220;28;20480;-52
2022/05/10 06:55:28;;;;;;;2.75;2.40;;;24.90;45.70;;;19.67;50.55;96098.66;5052010;28;20029;-52
2022/05/10 06:57:54;;;;;;;3.15;2.53;;;25.00;45.10;;;19.92;49.34;96107.19;5052029;28;20017;-53
2022/05/10 07:00:34;;;;;;;4.40;2.20;;;25.20;44.80;;;20.24;48.91;96114.16;5046166;28;20040;-58
2022/05/10 07:03:07;;;;;;;6.38;2.65;;;25.50;44.90;;;20.45;48.20;96107.06;5053478;28;20113;-54
2022/05/10 07:05:35;;;;;;;3.35;2.58;;;25.70;43.90;;;20.58;48.02;96110.00;5053189;28;20609;-52
2022/05/10 07:08:07;;;;;;;5.03;2.70;;;25.90;43.70;;;20.71;47.82;96109.03;5051611;28;20083;-54
2022/05/10 07:10:42;;;;;;;3.25;2.78;;;26.10;43.10;;;20.80;47.67;96113.34;5035174;28;20453;-56
2022/05/10 07:13:09;;;;;;;4.20;3.00;;;26.40;42.80;;;20.90;48.15;96104.16;5052965;28;20420;-53
2022/05/10 07:15:37;;;;;;;5.03;2.85;;;26.60;42.60;;;21.20;47.45;96109.72;5059695;28;20548;-54
2022/05/10 07:18:09;;;;;;;3.88;2.75;;;26.80;42.20;;;21.51;47.26;96112.25;5070139;28;20029;-53
2022/05/10 07:20:38;;;;;;;3.92;3.35;;;27.10;42.00;;;21.51;46.93;96108.75;5052958;28;20391;-56
2022/05/10 07:23:04;;;;;;;3.65;2.92;;;27.30;41.40;;;21.42;46.76;96114.97;5052671;28;20104;-56
2022/05/10 07:25:33;;;;;;;7.28;3.30;;;27.40;41.00;;;21.53;47.25;96117.34;5052851;28;20159;-56
2022/05/10 07:27:59;;;;;;;5.88;3.20;;;27.60;40.70;;;21.81;47.23;96126.72;5052826;28;20392;-55
2022/05/10 07:30:35;;;;;;;7.15;3.17;;;27.80;40.40;;;21.83;46.07;96118.25;5058371;28;20025;-55
2022/05/10 07:33:05;;;;;;;9.02;3.30;;;27.90;39.70;;;21.89;45.53;96114.25;5047856;28;20024;-54
2022/05/10 07:38:21;;;;;;;4.60;3.47;;;28.20;38.90;;;22.01;44.73;96121.69;5059587;28;20062;-57
2022/05/10 07:40:56;;;;;;;5.03;3.60;;;28.40;38.40;;;22.11;44.73;96119.41;5056061;28;20234;-59
2022/05/10 07:43:22;;;;;;;6.28;3.80;;;28.50;37.80;;;22.30;44.50;96129.91;5061535;28;20392;-60
2022/05/10 07:45:51;;;;;;;4.57;3.50;;;28.70;37.90;;;22.31;44.29;96122.56;5067370;28;20115;-59
2022/05/10 07:48:20;;;;;;;3.97;3.50;;;28.80;37.40;;;22.47;43.87;96120.06;5060009;28;20055;-60
2022/05/10 07:50:50;;;;;;;5.53;3.40;;;29.00;37.10;;;22.40;44.10;96112.44;5050113;28;20029;-60
2022/05/10 07:53:18;;;;;;;7.20;3.80;;;29.00;36.80;;;22.51;44.37;96116.38;5050471;28;20024;-59
2022/05/10 07:55:45;;;;;;;5.40;3.80;;;29.10;36.70;;;22.61;44.13;96118.72;5050279;28;20504;-60
2022/05/10 07:58:12;;;;;;;4.78;4.22;;;29.20;36.60;;;22.61;44.28;96117.94;5050258;28;20033;-60
2022/05/10 08:00:40;;;;;;;5.63;3.80;;;29.40;36.40;;;22.91;44.40;96117.88;5047681;28;20048;-60
2022/05/10 08:03:16;;;;;;;5.70;4.20;;;29.60;36.30;;;23.35;43.60;96111.03;5043287;28;20024;-60
2022/05/10 08:05:49;;;;;;;4.80;4.30;;;29.80;36.00;;;23.74;42.63;96115.13;5051625;28;20028;-57
2022/05/10 08:08:18;;;;;;;5.30;4.22;;;30.10;35.70;;;24.01;41.92;96111.00;5049856;28;20048;-59
2022/05/10 08:10:46;;;;;;;6.57;4.93;;;30.40;35.50;;;24.23;41.89;96104.34;5050928;28;20029;-57
2022/05/10 08:13:18;;;;;;;5.20;4.70;;;30.70;35.10;;;24.28;41.28;96107.94;5051315;28;20056;-58
2022/05/10 08:15:45;;;;;;;7.75;5.45;;;31.00;34.80;;;24.29;41.15;96102.19;5057762;28;20071;-50
2022/05/10 08:18:14;;;;;;;5.78;5.28;;;31.30;34.50;;;24.70;41.54;96100.38;5052214;28;20037;-52
2022/05/10 08:20:41;;;;;;;6.43;5.80;;;31.50;34.00;;;24.85;40.45;96096.94;5071119;28;20029;-51
2022/05/10 08:23:09;;;;;;;5.63;5.13;;;31.70;33.60;;;25.06;40.84;96106.88;5051308;28;20104;-51
2022/05/10 08:25:35;;;;;;;6.93;5.75;;;32.00;33.50;;;25.04;40.22;96104.50;5034524;28;20039;-53
2022/05/10 08:28:13;;;;;;;6.40;5.90;;;32.10;32.70;;;25.31;40.11;96102.16;5071781;28;20471;-53
2022/05/10 08:30:49;;;;;;;7.20;5.85;;;32.30;32.40;;;25.75;39.60;96107.63;5072133;28;20475;-53
2022/05/10 08:33:37;;;;;;;7.15;5.57;;;32.50;32.40;;;26.03;39.40;96113.84;5034580;28;20029;-52
2022/05/10 08:36:04;;;;;;;7.95;6.40;;;32.70;32.40;;;26.05;39.04;96103.38;5050972;28;20060;-50
2022/05/10 08:38:37;;;;;;;8.88;6.07;;;33.00;32.30;;;26.43;39.21;96107.41;5050787;28;20029;-51
2022/05/10 08:41:20;;;;;;;9.35;5.70;;;33.30;31.90;;;26.85;37.92;96103.31;5057525;28;20077;-51
2022/05/10 08:44:12;;;;;;;7.20;6.47;;;33.60;31.60;;;27.01;37.69;96104.03;5056204;28;20029;-50
2022/05/10 08:46:43;;;;;;;8.80;6.30;;;33.60;31.40;;;27.34;37.67;96106.34;5045730;28;20089;-54
2022/05/10 08:49:18;;;;;;;7.53;6.82;;;33.80;31.40;;;27.07;37.06;96099.09;5041864;28;20044;-52
2022/05/10 08:51:44;;;;;;;7.38;6.65;;;33.90;30.80;;;27.24;36.76;96106.13;5052157;28;20037;-54
2022/05/10 08:54:10;;;;;;;6.60;6.00;;;34.10;30.60;;;27.01;37.47;96090.38;5074910;28;20483;-52
2022/05/10 08:56:55;;;;;;;7.75;6.53;;;34.40;30.10;;;27.34;36.56;96100.88;5060738;28;20098;-51
2022/05/10 08:59:55;;;;;;;8.93;6.65;;;34.50;29.80;;;27.29;36.98;96097.63;5058041;28;20391;-51
2022/05/10 09:02:54;;;;;;;6.57;5.97;;;34.60;29.60;;;27.82;36.34;96097.88;5066120;28;20036;-55
2022/05/10 09:05:25;;;;;;;8.75;6.15;;;34.70;29.80;;;28.02;35.50;96096.69;5075126;28;20056;-52
2022/05/10 09:08:08;;;;;;;7.70;7.00;;;34.90;29.50;;;27.58;36.29;96093.50;5073758;28;20052;-56
2022/05/10 09:10:40;;;;;;;;;;;35.00;29.20;;;27.47;37.21;96087.81;5065284;28;20080;-53
2022/05/10 09:13:13;;;;;;;7.53;6.82;;;35.10;29.70;;;28.00;35.85;96087.25;5054671;28;20010;-52
2022/05/10 09:15:55;;;;;;;8.15;7.35;;;35.30;29.50;;;28.14;35.38;96090.22;5067071;28;20040;-52
2022/05/10 09:18:37;;;;;;;;;;;35.50;29.10;;;27.82;35.62;96092.41;5054479;28;20027;-50
2022/05/10 09:21:26;;;;;;;7.33;6.57;;;35.50;29.40;;;28.40;35.89;96086.78;5071741;28;19912;-55
2022/05/10 09:24:48;;;;;;;8.40;7.40;;;35.60;29.10;;;28.05;34.81;96079.53;5053901;28;20025;-54
2022/05/10 09:27:20;;;;;;;7.97;7.15;;;35.80;28.70;;;28.15;35.12;96078.13;5053616;28;20033;-51
2022/05/10 09:29:51;;;;;;;9.15;7.57;;;35.70;28.20;;;28.23;34.83;96079.81;5062390;28;20047;-51
2022/05/10 09:35:28;;;;;;;9.02;7.05;;;35.70;28.10;;;28.20;35.47;96071.53;5054964;28;20078;-52
2022/05/10 09:38:06;;;;;;;8.30;7.60;;;35.70;28.10;;;28.55;34.35;96080.34;5053767;28;20484;-54
2022/05/10 09:40:48;;;;;;;7.50;6.47;;;35.80;27.90;;;28.94;34.64;96077.34;5053534;28;20083;-51
2022/05/10 09:43:27;;;;;;;7.70;7.00;;;36.10;28.10;;;28.71;33.91;96074.69;5053719;28;20024;-52
2022/05/10 09:46:22;;;;;;;7.60;6.90;;;36.30;27.50;;;28.84;32.95;96075.28;5041425;28;20032;-53
2022/05/10 09:48:48;;;;;;;7.75;7.05;;;36.40;27.20;;;29.10;32.75;96068.19;5069239;28;20104;-54
2022/05/10 09:51:36;;;;;;;8.75;7.35;;;36.40;27.10;;;29.09;32.81;96075.63;5053438;28;20029;-52
2022/05/10 09:54:35;;;;;;;8.75;6.65;;;36.50;26.80;;;29.48;32.55;96067.06;5062456;28;20035;-50
2022/05/10 09:57:02;;;;;;;7.78;7.07;;;36.70;26.90;;;29.55;32.18;96064.38;5058414;28;20058;-56
2022/05/10 09:59:45;;;;;;;8.15;6.85;;;36.80;27.20;;;29.44;32.19;96063.50;5056524;28;20029;-51
2022/05/10 10:02:38;;;;;;;7.57;6.70;;;36.90;26.40;;;29.22;32.38;96055.00;5056845;28;20037;-54
2022/05/10 10:05:31;;;;;;;7.03;6.32;;;36.90;26.40;;;29.48;32.82;96067.84;5054014;28;20040;-53
2022/05/10 10:08:07;;;;;;;8.68;6.75;;;37.00;26.70;;;29.54;32.97;96062.03;5038879;28;20044;-54
2022/05/10 10:10:39;;;;;;;8.02;6.70;;;36.80;26.70;;;29.61;31.88;96062.13;5056518;28;20557;-50
2022/05/10 10:13:37;;;;;;;7.57;6.97;;;36.80;26.30;;;29.61;32.39;96064.88;5072754;28;20029;-53
2022/05/10 10:16:34;;;;;;;7.20;6.50;;;37.00;26.20;;;28.75;33.40;96067.31;5053334;28;20510;-55
2022/05/10 10:19:25;;;;;;;8.43;7.60;;;37.00;25.60;;;28.93;33.30;96055.81;5052754;28;20035;-52
2022/05/10 10:22:06;;;;;;;9.02;7.00;;;36.90;25.50;;;29.13;33.44;96057.25;5042218;28;20037;-51
2022/05/10 10:25:15;;;;;;;7.82;7.13;;;36.80;25.60;;;29.28;32.92;96060.97;5070749;28;20055;-52
2022/05/10 10:27:49;;;;;;;8.00;6.75;;;37.00;26.00;;;29.51;32.61;96058.06;5056214;28;20560;-54
2022/05/10 10:30:46;;;;;;;7.03;6.32;;;36.80;26.00;;;29.45;32.09;96054.09;5052792;28;20086;-52
2022/05/10 10:33:55;;;;;;;7.47;6.70;;;36.60;26.30;;;29.98;31.24;96056.59;5060863;28;20041;-56
2022/05/10 10:36:30;;;;;;;7.30;6.65;;;36.80;26.20;;;30.08;32.46;96050.41;5033491;28;20128;-51
2022/05/10 10:39:12;;;;;;;8.65;7.95;;;37.20;26.20;;;30.23;31.99;96050.56;5055225;28;20048;-54
2022/05/10 10:41:59;;;;;;;7.85;7.15;;;37.50;25.90;;;30.28;30.49;96048.25;5060981;28;20025;-51
2022/05/10 10:44:29;;;;;;;6.55;5.95;;;37.80;25.40;;;30.59;31.53;96040.63;5056782;28;20036;-52
2022/05/10 10:47:22;;;;;;;7.57;6.82;;;37.90;25.50;;;30.47;30.68;96040.94;5069841;28;20573;-56
2022/05/10 10:50:04;;;;;;;7.70;6.60;;;37.90;25.20;;;30.35;31.10;96037.31;5071292;28;20032;-55
2022/05/10 10:52:31;;;;;;;7.75;6.97;;;37.40;25.30;;;30.33;30.71;96036.09;5056376;28;20035;-59
2022/05/10 10:54:58;;;;;;;8.27;6.57;;;37.40;25.40;;;29.60;31.19;96027.59;5053825;28;20048;-57
2022/05/10 10:58:04;;;;;;;9.90;6.80;;;37.00;25.80;;;29.29;31.76;96032.34;5022692;28;20518;-56
2022/05/10 11:01:15;;;;;;;8.32;5.95;;;36.70;25.40;;;29.31;32.00;96032.00;5052405;28;20033;-56
2022/05/10 11:04:33;;;;;;;5.65;5.25;;;36.30;25.70;;;29.10;31.44;96030.56;5027073;28;20032;-56
2022/05/10 11:07:11;;;;;;;5.53;5.10;;;36.40;25.30;;;28.91;32.07;96017.00;5041318;28;20041;-52